Time;durP1;ratioP1;P1;durP2;ratioP2;P2;SDS_P1;SDS_P2;PMS_P1;PMS_P2;Temp;Humidity;BMP_temperature;BMP_pressure;BME280_temperature;BME280_humidity;BME280_pressure;Samples;Min_cycle;Max_cycle;Signal;HPM_P1;HPM_P2
2022/05/11 00:01:46;;;;;;;8.68;3.60;;;;;;;;;;5043766;28;20732;-71
2022/05/11 00:04:12;;;;;;;7.20;3.80;;;;;;;;;;5057094;28;20048;-71
2022/05/11 00:06:39;;;;;;;8.10;3.50;;;;;;;;;;5057808;28;20116;-71
2022/05/11 00:09:06;;;;;;;9.40;3.47;;;;;;;;;;5057425;28;20514;-72
2022/05/11 00:11:32;;;;;;;10.50;3.78;;;;;;;;;;5056660;28;20490;-71
2022/05/11 00:13:59;;;;;;;8.80;4.13;;;;;;;;;;5056225;28;20079;-72
2022/05/11 00:16:26;;;;;;;9.48;3.97;;;;;;;;;;5049217;28;20063;-72
2022/05/11 00:18:52;;;;;;;8.57;3.85;;;;;;;;;;5057468;28;20483;-72
2022/05/11 00:21:18;;;;;;;9.90;3.83;;;;;;;;;;5057930;28;20044;-72
2022/05/11 00:23:45;;;;;;;9.32;4.32;;;;;;;;;;5059113;28;20487;-71
2022/05/11 00:26:11;;;;;;;10.05;4.20;;;;;;;;;;5057950;28;20388;-70
2022/05/11 00:28:37;;;;;;;10.77;4.45;;;;;;;;;;5042126;28;20041;-71
2022/05/11 00:31:03;;;;;;;9.15;3.90;;;;;;;;;;5056456;28;20052;-71
2022/05/11 00:33:29;;;;;;;12.35;4.45;;;;;;;;;;5048564;28;20052;-70
2022/05/11 00:35:55;;;;;;;9.02;4.18;;;;;;;;;;5056508;28;20041;-71
2022/05/11 00:38:23;;;;;;;9.57;4.28;;;;;;;;;;5053992;28;20127;-70
2022/05/11 00:40:50;;;;;;;8.40;3.95;;;;;;;;;;5055527;28;20085;-71
2022/05/11 00:43:31;;;;;;;10.05;3.97;;;;;;;;;;5057014;28;20491;-71
2022/05/11 00:46:04;;;;;;;9.50;3.90;;;;;;;;;;5048621;28;20114;-72
2022/05/11 00:51:15;;;;;;;8.18;3.35;;;;;;;;;;5056993;28;20470;-72
2022/05/11 00:53:44;;;;;;;9.02;3.50;;;;;;;;;;5056564;28;20087;-71
2022/05/11 00:56:10;;;;;;;7.88;3.80;;;;;;;;;;5056475;28;20056;-71
2022/05/11 00:58:36;;;;;;;7.65;3.30;;;;;;;;;;5055868;28;20056;-71
2022/05/11 01:01:02;;;;;;;8.30;3.42;;;;;;;;;;5055907;28;20045;-71
2022/05/11 01:03:30;;;;;;;10.25;3.45;;;;;;;;;;5057970;28;20104;-71
2022/05/11 01:05:57;;;;;;;9.05;3.10;;;;;;;;;;5055948;28;20060;-72
2022/05/11 01:08:24;;;;;;;7.00;3.28;;;;;;;;;;5039083;28;20041;-71
2022/05/11 01:10:50;;;;;;;8.80;3.67;;;;;;;;;;5056350;28;20041;-70
2022/05/11 01:13:17;;;;;;;7.60;3.20;;;;;;;;;;5055983;28;20045;-71
2022/05/11 01:15:45;;;;;;;9.07;3.75;;;;;;;;;;5057526;28;20041;-71
2022/05/11 01:18:11;;;;;;;7.45;3.53;;;;;;;;;;5057710;28;20045;-71
2022/05/11 01:20:37;;;;;;;8.98;3.80;;;;;;;;;;5058434;28;20037;-71
2022/05/11 01:23:03;;;;;;;8.20;4.00;;;;;;;;;;5057655;28;20041;-71
2022/05/11 01:25:30;;;;;;;9.18;3.60;;;;;;;;;;5057889;28;20048;-72
2022/05/11 01:28:03;;;;;;;8.18;4.05;;;;;;;;;;5056809;28;20041;-72
2022/05/11 01:30:29;;;;;;;6.43;3.58;;;;;;;;;;5056921;28;20258;-72
2022/05/11 01:32:56;;;;;;;9.82;4.25;;;;;;;;;;5057914;28;20037;-72
2022/05/11 01:35:25;;;;;;;7.63;4.03;;;;;;;;;;5058391;28;20041;-72
2022/05/11 01:38:13;;;;;;;8.57;3.95;;;;;;;;;;5054653;28;20049;-72
2022/05/11 01:40:39;;;;;;;9.30;4.10;;;;;;;;;;5056500;28;20057;-72
2022/05/11 01:43:05;;;;;;;10.07;4.32;;;;;;;;;;5043247;28;20110;-71
2022/05/11 01:45:31;;;;;;;10.60;4.53;;;;;;;;;;5058409;28;20073;-71
2022/05/11 01:47:57;;;;;;;9.52;4.50;;;;;;;;;;5058704;28;20098;-71
2022/05/11 01:50:24;;;;;;;8.85;4.68;;;;;;;;;;5059819;28;20045;-71
2022/05/11 01:52:50;;;;;;;11.15;4.45;;;;;;;;;;5060617;28;20072;-72
2022/05/11 01:55:16;;;;;;;9.13;4.53;;;;;;;;;;5062459;28;20055;-71
2022/05/11 01:57:42;;;;;;;7.85;4.28;;;;;;;;;;5062524;28;20083;-72
2022/05/11 02:00:09;;;;;;;8.93;4.25;;;;;;;;;;5062613;28;20128;-72
2022/05/11 02:02:35;;;;;;;8.48;4.10;;;;;;;;;;5062711;28;20533;-72
2022/05/11 02:07:49;;;;;;;8.35;4.35;;;;;;;;;;5056709;28;20117;-71
2022/05/11 02:10:15;;;;;;;9.95;5.05;;;;;;;;;;5061857;28;20041;-71
2022/05/11 02:12:41;;;;;;;10.52;4.85;;;;;;;;;;5060790;28;20104;-71
2022/05/11 02:15:08;;;;;;;7.45;3.90;;;;;;;;;;5058948;28;20398;-71
2022/05/11 02:17:34;;;;;;;9.07;4.93;;;;;;;;;;5060557;28;20041;-72
2022/05/11 02:20:00;;;;;;;10.27;4.70;;;;;;;;;;5061679;28;20045;-71
2022/05/11 02:22:26;;;;;;;9.30;4.88;;;;;;;;;;5061205;28;20041;-71
2022/05/11 02:24:52;;;;;;;12.35;4.82;;;;;;;;;;5060669;28;20049;-72
2022/05/11 02:27:18;;;;;;;11.23;5.03;;;;;;;;;;5060680;28;20048;-72
2022/05/11 02:29:44;;;;;;;8.65;4.43;;;;;;;;;;5059525;28;20041;-72
2022/05/11 02:32:10;;;;;;;9.00;5.00;;;;;;;;;;5060382;28;20049;-72
2022/05/11 02:37:21;;;;;;;8.25;4.20;;;;;;;;;;5059197;28;20045;-72
2022/05/11 02:39:48;;;;;;;7.80;4.45;;;;;;;;;;5058316;28;20045;-71
2022/05/11 02:42:15;;;;;;;7.93;4.57;;;;;;;;;;5058941;28;20061;-71
2022/05/11 02:44:40;;;;;;;11.80;5.10;;;;;;;;;;5058419;28;20064;-71
2022/05/11 02:47:07;;;;;;;8.98;4.45;;;;;;;;;;5057870;28;20059;-71
2022/05/11 02:49:33;;;;;;;8.75;4.25;;;;;;;;;;5059224;28;20110;-71
2022/05/11 02:51:59;;;;;;;7.90;4.40;;;;;;;;;;5057841;28;20480;-71
2022/05/11 02:54:25;;;;;;;8.20;4.47;;;;;;;;;;5058426;28;20045;-71
2022/05/11 02:56:51;;;;;;;10.25;5.13;;;;;;;;;;5057851;28;20087;-72
2022/05/11 02:59:17;;;;;;;12.40;4.82;;;;;;;;;;5058059;28;20036;-72
2022/05/11 03:01:43;;;;;;;10.88;4.55;;;;;;;;;;5058208;28;20045;-72
2022/05/11 03:04:09;;;;;;;8.27;4.45;;;;;;;;;;5059384;28;20044;-71
2022/05/11 03:06:35;;;;;;;9.88;4.38;;;;;;;;;;5057858;28;20037;-72
2022/05/11 03:09:02;;;;;;;9.05;4.47;;;;;;;;;;5058253;28;20049;-71
2022/05/11 03:11:28;;;;;;;9.90;4.50;;;;;;;;;;5058973;28;20129;-70
2022/05/11 03:13:54;;;;;;;8.38;4.30;;;;;;;;;;5025390;28;20084;-71
2022/05/11 03:16:20;;;;;;;7.97;4.00;;;;;;;;;;5057497;28;20041;-71
2022/05/11 03:18:46;;;;;;;8.45;4.65;;;;;;;;;;5058975;28;20048;-72
2022/05/11 03:21:12;;;;;;;8.88;4.50;;;;;;;;;;5057992;28;20128;-72
2022/05/11 03:23:38;;;;;;;7.93;4.03;;;;;;;;;;5022328;28;20045;-72
2022/05/11 03:26:04;;;;;;;9.23;4.00;;;;;;;;;;5055690;28;20399;-72
2022/05/11 03:28:30;;;;;;;7.10;4.10;;;;;;;;;;5057936;28;20040;-72
2022/05/11 03:30:56;;;;;;;9.45;4.40;;;;;;;;;;5057192;28;20472;-72
2022/05/11 03:36:07;;;;;;;8.30;4.15;;;;;;;;;;5059749;28;20045;-71
2022/05/11 03:38:33;;;;;;;10.93;4.40;;;;;;;;;;5055975;28;20403;-72
2022/05/11 03:40:59;;;;;;;9.43;4.25;;;;;;;;;;5051706;28;20113;-71
2022/05/11 03:43:25;;;;;;;9.25;4.25;;;;;;;;;;5058344;28;20080;-71
2022/05/11 03:45:51;;;;;;;9.20;4.53;;;;;;;;;;5057835;28;20072;-71
2022/05/11 03:48:17;;;;;;;7.82;4.10;;;;;;;;;;5057594;28;20037;-71
2022/05/11 03:50:43;;;;;;;12.05;4.50;;;;;;;;;;5058982;28;20107;-72
2022/05/11 03:53:09;;;;;;;9.63;4.63;;;;;;;;;;5057946;28;20045;-72
2022/05/11 03:55:35;;;;;;;8.77;4.93;;;;;;;;;;5057675;28;20072;-71
2022/05/11 03:58:01;;;;;;;7.32;4.03;;;;;;;;;;5059033;28;20044;-71
2022/05/11 04:00:27;;;;;;;9.32;4.25;;;;;;;;;;5057967;28;20041;-72
2022/05/11 04:02:54;;;;;;;9.68;4.55;;;;;;;;;;5057657;28;20087;-72
2022/05/11 04:05:21;;;;;;;11.27;4.78;;;;;;;;;;5056771;28;20379;-70
2022/05/11 04:07:47;;;;;;;9.52;4.78;;;;;;;;;;5057491;28;20049;-71
2022/05/11 04:10:14;;;;;;;8.18;4.22;;;;;;;;;;5058590;28;20052;-71
2022/05/11 04:12:40;;;;;;;9.98;4.45;;;;;;;;;;5059185;28;20051;-70
2022/05/11 04:15:07;;;;;;;10.23;4.00;;;;;;;;;;5057369;28;20045;-71
2022/05/11 04:17:33;;;;;;;8.55;4.05;;;;;;;;;;5054918;28;20452;-71
2022/05/11 04:19:59;;;;;;;9.43;4.60;;;;;;;;;;5048146;28;20080;-72
2022/05/11 04:22:25;;;;;;;8.43;4.65;;;;;;;;;;5054303;28;20489;-72
2022/05/11 04:24:51;;;;;;;10.07;4.60;;;;;;;;;;5031510;28;20052;-72
2022/05/11 04:27:17;;;;;;;13.45;4.82;;;;;;;;;;5040285;28;20045;-72
2022/05/11 04:29:43;;;;;;;11.32;4.97;;;;;;;;;;5056797;28;20079;-72
2022/05/11 04:32:10;;;;;;;10.10;4.78;;;;;;;;;;5060343;28;20041;-72
2022/05/11 04:34:40;;;;;;;9.50;4.55;;;;;;;;;;5059201;28;20045;-72
2022/05/11 04:37:06;;;;;;;8.48;4.60;;;;;;;;;;5053703;28;20124;-72
2022/05/11 04:39:32;;;;;;;11.38;5.18;;;;;;;;;;5044470;28;20072;-71
2022/05/11 04:41:58;;;;;;;10.02;4.68;;;;;;;;;;5057936;28;20080;-72
2022/05/11 04:44:24;;;;;;;8.15;4.47;;;;;;;;;;5034430;28;20068;-71
2022/05/11 04:46:50;;;;;;;10.52;5.15;;;;;;;;;;5051222;28;20491;-72
2022/05/11 04:49:16;;;;;;;9.43;4.93;;;;;;;;;;5058863;28;20131;-71
2022/05/11 04:51:43;;;;;;;10.93;4.78;;;;;;;;;;5057823;28;20403;-71
2022/05/11 04:54:09;;;;;;;10.65;5.50;;;;;;;;;;5052530;28;20120;-71
2022/05/11 04:56:37;;;;;;;11.57;4.85;;;;;;;;;;5059383;28;20056;-71
2022/05/11 04:59:03;;;;;;;9.85;5.05;;;;;;;;;;5059689;28;20124;-71
2022/05/11 05:01:29;;;;;;;9.23;4.88;;;;;;;;;;5047824;28;20044;-72
2022/05/11 05:03:55;;;;;;;13.35;5.63;;;;;;;;;;5063091;28;20052;-71
2022/05/11 05:06:21;;;;;;;9.57;5.05;;;;;;;;;;5061853;28;20076;-72
2022/05/11 05:08:47;;;;;;;10.55;4.95;;;;;;;;;;5061050;28;20067;-72
2022/05/11 05:11:13;;;;;;;9.63;5.20;;;;;;;;;;5059440;28;20037;-71
2022/05/11 05:13:39;;;;;;;12.70;5.45;;;;;;;;;;5052987;28;20140;-71
2022/05/11 05:16:05;;;;;;;10.43;5.07;;;;;;;;;;5058878;28;20072;-71
2022/05/11 05:18:33;;;;;;;11.77;5.75;;;;;;;;;;5056163;28;20069;-72
2022/05/11 05:20:59;;;;;;;12.55;5.82;;;;;;;;;;5053517;28;20049;-71
2022/05/11 05:23:25;;;;;;;12.38;5.50;;;;;;;;;;5058746;28;20075;-71
2022/05/11 05:25:51;;;;;;;10.23;5.47;;;;;;;;;;5059348;28;20041;-71
2022/05/11 05:31:06;;;;;;;11.38;5.85;;;;;;;;;;5062261;28;20048;-71
2022/05/11 05:33:33;;;;;;;11.98;6.55;;;;;;;;;;5064178;28;20049;-70
2022/05/11 05:36:00;;;;;;;9.63;5.57;;;;;;;;;;5045099;28;20047;-70
2022/05/11 05:38:27;;;;;;;15.15;6.72;;;;;;;;;;5059403;28;20136;-71
2022/05/11 05:40:54;;;;;;;11.20;6.78;;;;;;;;;;5060245;28;20118;-71
2022/05/11 05:43:20;;;;;;;11.68;7.18;;;;;;;;;;5062442;28;20044;-71
2022/05/11 05:45:47;;;;;;;16.30;7.55;;;;;;;;;;5063542;28;20051;-71
2022/05/11 05:48:13;;;;;;;14.88;8.60;;;;;;;;;;5060833;28;20043;-71
2022/05/11 05:50:39;;;;;;;14.48;8.02;;;;;;;;;;5043176;28;20120;-71
2022/05/11 05:53:05;;;;;;;17.50;9.27;;;;;;;;;;5045321;28;20099;-71
2022/05/11 05:55:31;;;;;;;13.55;8.68;;;;;;;;;;5064343;28;20050;-71
2022/05/11 05:57:59;;;;;;;16.40;8.48;;;;;;;;;;5056608;28;20052;-71
2022/05/11 06:00:26;;;;;;;13.02;7.22;;;;;;;;;;5056469;28;20105;-71
2022/05/11 06:02:51;;;;;;;12.82;6.95;;;;;;;;;;5075942;28;20017;-71
2022/05/11 06:05:17;;;;;;;16.95;8.52;;;;;;;;;;5042723;28;20052;-72
2022/05/11 06:07:43;;;;;;;13.55;7.80;;;;;;;;;;5060554;28;20052;-72
2022/05/11 06:10:09;;;;;;;18.33;7.80;;;;;;;;;;5060894;28;20056;-72
2022/05/11 06:12:35;;;;;;;14.38;7.95;;;;;;;;;;5065009;28;20069;-72
2022/05/11 06:15:02;;;;;;;12.93;7.63;;;;;;;;;;5048100;28;20118;-72
2022/05/11 06:17:29;;;;;;;14.48;7.43;;;;;;;;;;5047920;28;20522;-72
2022/05/11 06:19:55;;;;;;;13.23;7.40;;;;;;;;;;5048737;28;20076;-72
2022/05/11 06:22:21;;;;;;;12.80;7.18;;;;;;;;;;5046748;28;20092;-72
2022/05/11 06:24:48;;;;;;;13.45;7.40;;;;;;;;;;5049923;28;20077;-71
2022/05/11 06:27:18;;;;;;;12.75;6.25;;;;;;;;;;5061822;28;20045;-71
2022/05/11 06:29:50;;;;;;;12.93;5.90;;;;;;;;;;5061741;28;20136;-72
2022/05/11 06:32:19;;;;;;;14.15;6.13;;;;;;;;;;5044125;28;20084;-72
2022/05/11 06:34:45;;;;;;;10.85;5.72;;;;;;;;;;5043357;28;20522;-71
2022/05/11 06:37:11;;;;;;;12.75;5.50;;;;;;;;;;5061953;28;20044;-72
2022/05/11 06:39:37;;;;;;;13.18;6.00;;;;;;;;;;5044348;28;20194;-72
2022/05/11 06:42:06;;;;;;;11.45;5.30;;;;;;;;;;5063142;28;20052;-72
2022/05/11 06:44:32;;;;;;;9.27;4.63;;;;;;;;;;5062521;28;20072;-72
2022/05/11 06:46:58;;;;;;;9.95;4.20;;;;;;;;;;5062781;28;20037;-72
2022/05/11 06:49:24;;;;;;;12.70;4.55;;;;;;;;;;5045706;28;20048;-72
2022/05/11 06:51:50;;;;;;;10.85;4.40;;;;;;;;;;5061545;28;20067;-71
2022/05/11 06:59:57;;;;;;;10.85;4.07;;;;;;;;;;5000898;28;20050;-73
2022/05/11 07:02:23;;;;;;;11.35;4.35;;;;;;;;;;5000917;28;20162;-72
2022/05/11 07:04:49;;;;;;;11.50;4.25;;;;;;;;;;5000733;28;20129;-72
2022/05/11 07:07:16;;;;;;;9.70;4.25;;;;;;;;;;5000653;28;20078;-72
2022/05/11 07:09:42;;;;;;;12.95;4.78;;;;;;;;;;4999967;28;20043;-73
2022/05/11 07:12:18;;;;;;;8.35;3.63;;;;;;;;;;5001818;28;20073;-75
2022/05/11 07:14:48;;;;;;;10.02;3.88;;;;;;;;;;5002212;28;20560;-74
2022/05/11 07:17:23;;;;;;;11.35;4.13;;;;;;;;;;5001152;28;20050;-73
2022/05/11 07:19:49;;;;;;;9.57;3.50;;;;;;;;;;5001245;28;20058;-72
2022/05/11 07:22:15;;;;;;;9.90;3.55;;;;;;;;;;5000666;28;20058;-73
2022/05/11 07:24:43;;;;;;;10.38;3.25;;;;;;;;;;5001660;28;20042;-71
2022/05/11 07:27:09;;;;;;;9.93;3.55;;;;;;;;;;4984521;28;20058;-72
2022/05/11 07:29:35;;;;;;;11.40;3.38;;;;;;;;;;4998506;28;20046;-72
2022/05/11 07:32:02;;;;;;;12.45;3.13;;;;;;;;;;5000010;28;20053;-72
2022/05/11 07:34:29;;;;;;;10.20;3.63;;;;;;;;;;5039036;28;20068;-72
2022/05/11 07:36:55;;;;;;;12.10;2.90;;;;;;;;;;5061134;28;20047;-72
2022/05/11 07:39:23;;;;;;;12.07;2.88;;;;;;;;;;5060590;28;20411;-72
2022/05/11 07:41:49;;;;;;;9.18;2.30;;;;;;;;;;5055660;28;20103;-73
2022/05/11 07:44:15;;;;;;;10.35;2.75;;;;;;;;;;5060201;28;20415;-72
2022/05/11 07:46:42;;;;;;;12.30;2.70;;;;;;;;;;5062240;28;20052;-72
2022/05/11 07:49:09;;;;;;;9.25;2.58;;;;;;;;;;5051839;28;20080;-73
2022/05/11 07:51:35;;;;;;;11.35;2.63;;;;;;;;;;5059709;28;20048;-72
2022/05/11 07:54:01;;;;;;;10.05;2.30;;;;;;;;;;5059796;28;20120;-72
2022/05/11 08:01:57;;;;;;;12.80;2.13;;;;;;;;;;5047945;28;20045;-73
2022/05/11 08:04:23;;;;;;;12.57;2.85;;;;;;;;;;5058018;28;20155;-72
2022/05/11 08:06:49;;;;;;;11.82;2.83;;;;;;;;;;5043090;28;20041;-72
2022/05/11 08:09:14;;;;;;;12.50;2.35;;;;;;;;;;5060280;28;20052;-72
2022/05/11 08:11:40;;;;;;;9.35;2.33;;;;;;;;;;5060677;28;20120;-73
2022/05/11 08:14:07;;;;;;;9.15;2.05;;;;;;;;;;5060982;28;20048;-73
2022/05/11 08:16:33;;;;;;;13.98;2.50;;;;;;;;;;5058818;28;20049;-72
2022/05/11 08:18:59;;;;;;;8.85;2.22;;;;;;;;;;5057103;28;20076;-72
2022/05/11 08:21:26;;;;;;;7.38;2.08;;;;;;;;;;5041915;28;20071;-72
2022/05/11 08:23:52;;;;;;;9.60;2.20;;;;;;;;;;5059167;28;20064;-73
2022/05/11 08:26:18;;;;;;;9.15;2.35;;;;;;;;;;5061444;28;20491;-72
2022/05/11 08:28:44;;;;;;;7.05;1.75;;;;;;;;;;5042057;28;20044;-72
2022/05/11 08:33:55;;;;;;;11.52;1.83;;;;;;;;;;5058941;28;20049;-72
2022/05/11 08:36:22;;;;;;;8.45;1.90;;;;;;;;;;5059948;28;20053;-73
2022/05/11 08:38:49;;;;;;;10.25;2.20;;;;;;;;;;5058509;28;20083;-73
2022/05/11 08:41:15;;;;;;;9.40;2.10;;;;;;;;;;5057967;28;20055;-72
2022/05/11 08:43:42;;;;;;;8.60;1.85;;;;;;;;;;5054989;28;20044;-73
2022/05/11 08:46:16;;;;;;;7.93;1.80;;;;;;;;;;5040009;28;20508;-72
2022/05/11 08:48:44;;;;;;;6.97;1.73;;;;;;;;;;5044464;28;20045;-72
2022/05/11 08:51:13;;;;;;;9.35;1.90;;;;;;;;;;5045626;28;20045;-72
2022/05/11 08:53:41;;;;;;;8.75;2.25;;;;;;;;;;5058955;28;20045;-73
2022/05/11 08:56:17;;;;;;;18.60;2.60;;;;;;;;;;5059423;28;20515;-73
2022/05/11 08:58:52;;;;;;;9.07;2.17;;;;;;;;;;5057159;28;20068;-73
2022/05/11 09:01:36;;;;;;;12.30;2.10;;;;;;;;;;5061560;28;20109;-72
2022/05/11 09:04:06;;;;;;;7.57;1.60;;;;;;;;;;5061166;28;20045;-72
2022/05/11 09:06:32;;;;;;;7.95;1.40;;;;;;;;;;5044658;28;20080;-71
2022/05/11 09:08:59;;;;;;;7.55;1.63;;;;;;;;;;5051631;28;20037;-72
2022/05/11 09:11:25;;;;;;;7.63;1.45;;;;;;;;;;5061223;28;20072;-72
2022/05/11 09:13:51;;;;;;;5.82;1.58;;;;;;;;;;5056866;28;20056;-72
2022/05/11 09:16:22;;;;;;;10.27;1.80;;;;;;;;;;5059736;28;20090;-73
2022/05/11 09:18:48;;;;;;;;;;;;;;;;;;5069114;28;20045;-73
2022/05/11 09:21:21;;;;;;;11.52;1.75;;;;;;;;;;5079456;28;19912;-71
2022/05/11 09:23:51;;;;;;;7.70;1.60;;;;;;;;;;5060930;28;20048;-72
2022/05/11 09:26:28;;;;;;;9.65;1.95;;;;;;;;;;5075108;28;20098;-73
2022/05/11 09:28:55;;;;;;;9.85;1.70;;;;;;;;;;5041419;28;20040;-73
2022/05/11 09:31:25;;;;;;;8.75;1.92;;;;;;;;;;5059522;28;20053;-73
2022/05/11 09:34:03;;;;;;;8.35;1.52;;;;;;;;;;5080498;28;20021;-72
2022/05/11 09:36:37;;;;;;;8.55;1.88;;;;;;;;;;5078443;28;20043;-73
2022/05/11 09:39:13;;;;;;;7.18;1.70;;;;;;;;;;5059028;28;20045;-73
2022/05/11 09:41:41;;;;;;;10.70;1.90;;;;;;;;;;5060961;28;20049;-73
2022/05/11 09:44:18;;;;;;;9.15;1.85;;;;;;;;;;5076957;28;20056;-73
2022/05/11 09:46:44;;;;;;;7.40;1.65;;;;;;;;;;5065877;28;20055;-74
2022/05/11 09:49:24;;;;;;;11.27;1.80;;;;;;;;;;5069390;28;20099;-73
2022/05/11 09:51:54;;;;;;;12.35;1.95;;;;;;;;;;5063199;28;20140;-74
2022/05/11 09:54:42;;;;;;;9.70;1.97;;;;;;;;;;5072891;28;20519;-74
2022/05/11 09:57:08;;;;;;;11.13;2.17;;;;;;;;;;5066675;28;20041;-74
2022/05/11 09:59:37;;;;;;;10.18;2.40;;;;;;;;;;5065760;28;20105;-76
2022/05/11 10:02:06;;;;;;;10.15;2.22;;;;;;;;;;5050924;28;20048;-76
2022/05/11 10:04:35;;;;;;;8.38;1.77;;;;;;;;;;5068033;28;20045;-76
2022/05/11 10:07:02;;;;;;;6.45;1.45;;;;;;;;;;5067651;28;20114;-77
2022/05/11 10:09:32;;;;;;;9.38;1.83;;;;;;;;;;5061788;28;20473;-74
2022/05/11 10:11:59;;;;;;;8.68;1.80;;;;;;;;;;5059202;28;20698;-73
2022/05/11 10:22:46;;;;;;;9.98;1.85;;;;;;;;;;5052291;28;20072;-75
2022/05/11 10:25:21;;;;;;;7.85;1.40;;;;;;;;;;5064287;28;20049;-73
2022/05/11 10:27:51;;;;;;;8.32;1.40;;;;;;;;;;5044472;28;20056;-72
2022/05/11 10:30:25;;;;;;;10.25;1.60;;;;;;;;;;5059947;28;20049;-74
2022/05/11 10:32:51;;;;;;;7.07;1.30;;;;;;;;;;5055119;28;20045;-74
2022/05/11 10:35:20;;;;;;;5.60;1.08;;;;;;;;;;5061348;28;20041;-74
2022/05/11 10:37:49;;;;;;;8.88;1.42;;;;;;;;;;5057882;28;20055;-73
2022/05/11 10:40:18;;;;;;;8.07;1.90;;;;;;;;;;5059739;28;20086;-73
2022/05/11 10:43:01;;;;;;;7.05;1.27;;;;;;;;;;5041400;28;20045;-73
2022/05/11 10:45:31;;;;;;;9.77;1.80;;;;;;;;;;5041308;28;20045;-72
2022/05/11 10:48:08;;;;;;;8.65;1.33;;;;;;;;;;5057053;28;20151;-73
2022/05/11 10:50:50;;;;;;;6.43;1.50;;;;;;;;;;5042823;28;20553;-74
2022/05/11 10:53:26;;;;;;;8.57;1.20;;;;;;;;;;5061731;28;20045;-73
2022/05/11 10:55:56;;;;;;;7.53;1.23;;;;;;;;;;5042492;28;20052;-72
2022/05/11 10:58:48;;;;;;;6.43;1.20;;;;;;;;;;5059311;28;20071;-73
2022/05/11 11:01:16;;;;;;;8.73;1.38;;;;;;;;;;5059119;28;20055;-73
2022/05/11 11:03:45;;;;;;;5.18;1.02;;;;;;;;;;5056920;28;20052;-72
2022/05/11 11:09:30;;;;;;;6.82;1.27;;;;;;;;;;5057916;28;20055;-73
2022/05/11 11:12:02;;;;;;;6.00;1.20;;;;;;;;;;5055169;28;20045;-73
2022/05/11 11:14:33;;;;;;;8.05;1.23;;;;;;;;;;5056254;28;20053;-72
2022/05/11 11:17:01;;;;;;;7.57;1.08;;;;;;;;;;5052481;28;20076;-74
2022/05/11 11:19:27;;;;;;;6.97;1.20;;;;;;;;;;5054814;28;20041;-73
2022/05/11 11:21:53;;;;;;;5.32;1.10;;;;;;;;;;5059859;28;20041;-74
2022/05/11 11:24:22;;;;;;;9.70;1.25;;;;;;;;;;5056965;28;20132;-73
2022/05/11 11:26:57;;;;;;;4.90;1.00;;;;;;;;;;5040463;28;20480;-72
2022/05/11 11:29:29;;;;;;;6.50;1.20;;;;;;;;;;5060088;28;20387;-72
2022/05/11 11:31:58;;;;;;;5.32;1.10;;;;;;;;;;5058028;28;20049;-73
2022/05/11 11:34:38;;;;;;;6.65;1.00;;;;;;;;;;5057672;28;20383;-73
2022/05/11 11:37:31;;;;;;;6.35;1.13;;;;;;;;;;5059312;28;20049;-73
2022/05/11 11:39:58;;;;;;;8.70;1.50;;;;;;;;;;5041791;28;20049;-72
2022/05/11 11:42:37;;;;;;;8.80;1.30;;;;;;;;;;5057286;28;20082;-73
2022/05/11 11:45:05;;;;;;;7.07;1.27;;;;;;;;;;5039523;28;20072;-73
2022/05/11 11:47:36;;;;;;;6.25;1.30;;;;;;;;;;5039331;28;20055;-73
2022/05/11 11:50:02;;;;;;;;;;;;;;;;;;5048726;28;20123;-73
2022/05/11 11:52:39;;;;;;;8.73;1.00;;;;;;;;;;5068305;28;19921;-73
2022/05/11 11:55:24;;;;;;;6.57;1.33;;;;;;;;;;5051035;28;20049;-73
2022/05/11 11:57:54;;;;;;;7.28;1.20;;;;;;;;;;5052841;28;20064;-74
2022/05/11 12:00:19;;;;;;;9.18;1.35;;;;;;;;;;5051770;28;20037;-73
2022/05/11 12:02:46;;;;;;;9.70;1.52;;;;;;;;;;5070927;28;20045;-72
2022/05/11 12:05:37;;;;;;;8.95;1.45;;;;;;;;;;5071346;28;20037;-73
2022/05/11 12:16:44;;;;;;;7.82;1.27;;;;;;;;;;5062929;28;20053;-73
2022/05/11 12:19:12;;;;;;;7.18;1.50;;;;;;;;;;5066449;28;20048;-73
2022/05/11 12:21:39;;;;;;;8.60;1.52;;;;;;;;;;5069400;28;20048;-73
2022/05/11 12:24:07;;;;;;;9.75;1.30;;;;;;;;;;5068955;28;20041;-73
2022/05/11 12:26:40;;;;;;;10.38;1.58;;;;;;;;;;5069165;28;20045;-71
2022/05/11 12:31:57;;;;;;;7.97;1.48;;;;;;;;;;5065520;28;20048;-73
2022/05/11 12:34:24;;;;;;;10.50;1.48;;;;;;;;;;5064626;28;20087;-73
2022/05/11 12:36:52;;;;;;;7.88;1.38;;;;;;;;;;5065358;28;20044;-72
2022/05/11 12:39:38;;;;;;;7.88;1.63;;;;;;;;;;5066724;28;20495;-73
2022/05/11 12:42:05;;;;;;;6.90;1.38;;;;;;;;;;5064195;28;20045;-72
2022/05/11 12:44:33;;;;;;;7.63;1.55;;;;;;;;;;5062869;28;20053;-73
2022/05/11 12:47:01;;;;;;;6.82;1.30;;;;;;;;;;5065750;28;20428;-73
2022/05/11 12:49:28;;;;;;;8.52;1.50;;;;;;;;;;5065549;28;20073;-74
2022/05/11 12:51:55;;;;;;;9.90;1.70;;;;;;;;;;5067346;28;20045;-74
2022/05/11 12:54:26;;;;;;;8.90;1.40;;;;;;;;;;5065435;28;20041;-73
2022/05/11 12:57:00;;;;;;;7.90;1.35;;;;;;;;;;5066143;28;20525;-74
2022/05/11 12:59:28;;;;;;;9.25;1.45;;;;;;;;;;5061703;28;20049;-73
2022/05/11 13:02:14;;;;;;;8.48;1.67;;;;;;;;;;5065677;28;20049;-73
2022/05/11 13:04:51;;;;;;;8.30;1.40;;;;;;;;;;5049759;28;20055;-74
2022/05/11 13:07:17;;;;;;;11.05;1.75;;;;;;;;;;5068900;28;20053;-74
2022/05/11 13:09:48;;;;;;;8.95;1.83;;;;;;;;;;5026942;28;20071;-73
2022/05/11 13:12:15;;;;;;;9.35;1.58;;;;;;;;;;5062335;28;20047;-74
2022/05/11 13:14:46;;;;;;;6.70;1.48;;;;;;;;;;5065197;28;20045;-74
2022/05/11 13:17:23;;;;;;;7.65;1.65;;;;;;;;;;5057728;28;20048;-73
2022/05/11 13:19:55;;;;;;;5.35;1.30;;;;;;;;;;5044638;28;20087;-74
2022/05/11 13:22:25;;;;;;;11.98;1.90;;;;;;;;;;5044872;28;20461;-74
2022/05/11 13:25:09;;;;;;;8.50;1.63;;;;;;;;;;5062125;28;20045;-74
2022/05/11 13:27:37;;;;;;;8.40;1.80;;;;;;;;;;5061828;28;20036;-74
2022/05/11 13:30:09;;;;;;;8.15;1.80;;;;;;;;;;5061863;28;20637;-76
2022/05/11 13:32:40;;;;;;;8.75;1.70;;;;;;;;;;5064352;28;20059;-73
2022/05/11 13:35:14;;;;;;;9.75;1.60;;;;;;;;;;5048161;28;20045;-73
2022/05/11 13:37:40;;;;;;;10.25;1.63;;;;;;;;;;5065302;28;20041;-73
2022/05/11 13:40:07;;;;;;;8.85;1.73;;;;;;;;;;5042883;28;20526;-73
2022/05/11 13:42:33;;;;;;;8.98;1.90;;;;;;;;;;5066715;28;20090;-74
2022/05/11 13:45:04;;;;;;;12.38;2.20;;;;;;;;;;5064529;28;20049;-72
2022/05/11 13:50:37;;;;;;;11.60;2.03;;;;;;;;;;5059789;28;20045;-73
2022/05/11 13:53:21;;;;;;;14.50;2.33;;;;;;;;;;5067338;28;20045;-73
2022/05/11 13:56:09;;;;;;;10.45;2.08;;;;;;;;;;5051501;28;20041;-72
2022/05/11 13:58:46;;;;;;;9.63;1.75;;;;;;;;;;5060627;28;20072;-73
2022/05/11 14:01:17;;;;;;;13.02;2.15;;;;;;;;;;5050996;28;20049;-73
2022/05/11 14:03:43;;;;;;;13.52;2.13;;;;;;;;;;5051007;28;20057;-72
2022/05/11 14:06:12;;;;;;;13.25;2.30;;;;;;;;;;5061887;28;20155;-72
2022/05/11 14:08:38;;;;;;;8.55;1.98;;;;;;;;;;5051832;28;20047;-73
2022/05/11 14:11:04;;;;;;;11.10;2.33;;;;;;;;;;5069950;28;20499;-73
2022/05/11 14:13:30;;;;;;;14.70;2.25;;;;;;;;;;5069334;28;20410;-72
2022/05/11 14:15:56;;;;;;;15.43;2.25;;;;;;;;;;5072106;28;20067;-72
2022/05/11 14:18:24;;;;;;;11.73;2.40;;;;;;;;;;5063680;28;20050;-73
2022/05/11 14:20:51;;;;;;;12.45;2.30;;;;;;;;;;5074348;28;20053;-73
2022/05/11 14:23:17;;;;;;;11.23;2.10;;;;;;;;;;5066028;28;20045;-73
2022/05/11 14:25:43;;;;;;;10.52;2.30;;;;;;;;;;5062420;28;20068;-74
2022/05/11 14:28:09;;;;;;;11.77;2.35;;;;;;;;;;5070410;28;20055;-73
2022/05/11 14:30:35;;;;;;;12.57;2.55;;;;;;;;;;5069337;28;20051;-73
2022/05/11 14:33:02;;;;;;;12.35;2.85;;;;;;;;;;5062085;28;20041;-73
2022/05/11 14:35:28;;;;;;;11.18;2.22;;;;;;;;;;5056713;28;20041;-72
2022/05/11 14:37:55;;;;;;;13.43;2.17;;;;;;;;;;5037915;28;20043;-73
2022/05/11 14:40:23;;;;;;;12.32;2.33;;;;;;;;;;5064596;28;20095;-73
2022/05/11 14:42:49;;;;;;;12.23;2.35;;;;;;;;;;5069723;28;20166;-73
2022/05/11 14:45:15;;;;;;;12.18;2.28;;;;;;;;;;5052071;28;20056;-73
2022/05/11 14:47:42;;;;;;;13.02;2.30;;;;;;;;;;5073964;28;20045;-72
2022/05/11 14:50:09;;;;;;;12.35;2.53;;;;;;;;;;5076318;28;20056;-73
2022/05/11 14:52:36;;;;;;;12.43;2.70;;;;;;;;;;5076660;28;20025;-73
2022/05/11 14:55:03;;;;;;;11.10;1.98;;;;;;;;;;5070887;28;20045;-72
2022/05/11 15:03:00;;;;;;;11.10;2.22;;;;;;;;;;5058055;28;20053;-74
2022/05/11 15:05:26;;;;;;;11.15;2.45;;;;;;;;;;5063962;28;20039;-73
2022/05/11 15:07:52;;;;;;;11.73;2.47;;;;;;;;;;5072488;28;20065;-72
2022/05/11 15:10:19;;;;;;;10.68;2.15;;;;;;;;;;5068957;28;20091;-73
2022/05/11 15:15:30;;;;;;;9.65;1.92;;;;;;;;;;5071448;28;20033;-74
2022/05/11 15:17:57;;;;;;;10.27;2.53;;;;;;;;;;5073239;28;20053;-73
2022/05/11 15:20:27;;;;;;;9.57;2.20;;;;;;;;;;5070907;28;20040;-74
2022/05/11 15:22:54;;;;;;;8.65;1.80;;;;;;;;;;5071375;28;20040;-73
2022/05/11 15:25:20;;;;;;;9.50;2.10;;;;;;;;;;5074761;28;20047;-74
2022/05/11 15:27:47;;;;;;;10.30;2.70;;;;;;;;;;5073471;28;20037;-73
2022/05/11 15:30:14;;;;;;;13.90;3.13;;;;;;;;;;5072173;28;20134;-73
2022/05/11 15:32:40;;;;;;;9.95;2.25;;;;;;;;;;5057398;28;20079;-73
2022/05/11 15:35:07;;;;;;;8.18;1.88;;;;;;;;;;5067061;28;20519;-72
2022/05/11 15:37:33;;;;;;;12.18;2.22;;;;;;;;;;5041932;28;20049;-72
2022/05/11 15:39:59;;;;;;;10.38;2.25;;;;;;;;;;5056153;28;20048;-72
2022/05/11 15:42:27;;;;;;;11.60;2.28;;;;;;;;;;5057181;28;20055;-72
2022/05/11 15:44:56;;;;;;;8.82;1.92;;;;;;;;;;5056482;28;20490;-71
2022/05/11 15:47:22;;;;;;;12.38;2.15;;;;;;;;;;5058108;28;20479;-72